Latest Weather Observations for Kempsey Airport

IDN60801

Issued at 8:32 am EST Friday 28 July 2017 (issued every 30 minutes, with the page automatically refreshed every 10 minutes)

About weather observations | Map of weather stations | Latest weather observations for NSW | Other Formats
Station Details ID: 059007 Name: KEMPSEY AIRPORT AWS Lat: -31.07 Lon: 152.77 Height: 13.0 m
Data from the previous 72 hours. | See also: Recent months at Kempsey Airport
Date/Time
EST
Temp
°C
App
Temp
°C
Dew
Point
°C
Rel
Hum
%
Delta-T
°C
Wind Press
QNH
hPa
Press
MSL
hPa
Rain since
9am
mm
Dir  Spd
km/h
Gust
km/h
Spd
kts
Gust
kts
28/08:30am 9.4 7.6 7.2 86 1.0 WSW 6 9 3 5 1020.3 1020.3 0.0
28/08:00am 7.5 5.8 6.0 90 0.7 WSW 4 9 2 5 1020.7 1020.7 0.0
28/07:30am 5.7 3.4 4.8 94 0.4 W 6 9 3 5 1020.7 1020.7 0.0
28/07:00am 4.1 0.9 3.2 94 0.4 WSW 9 15 5 8 1020.9 1020.9 0.0
28/06:30am 4.4 1.7 3.5 94 0.4 WSW 7 11 4 6 1020.8 1020.8 0.0
28/06:00am 3.9 0.7 3.0 94 0.4 NW 9 11 5 6 1020.6 1020.6 0.0
28/05:30am 3.8 1.9 2.8 93 0.4 W 2 6 1 3 1020.6 1020.6 0.0
28/05:00am 5.5 3.2 4.6 94 0.4 W 6 11 3 6 1020.4 1020.4 0.0
28/04:30am 5.1 3.0 4.1 93 0.4 W 4 7 2 4 1020.3 1020.3 0.0
28/04:00am 5.1 2.5 4.1 93 0.4 W 7 9 4 5 1020.8 1020.8 0.0
28/03:30am 5.8 3.3 4.8 93 0.4 SW 7 9 4 5 1021.4 1021.4 0.0
28/03:00am 6.3 3.9 5.3 93 0.4 SW 7 9 4 5 1021.5 1021.5 0.0
28/02:30am 5.9 3.5 4.5 91 0.6 SW 6 9 3 5 1021.7 1021.7 0.0
28/02:00am 7.0 5.7 5.8 92 0.5 WNW 2 9 1 5 1021.9 1021.9 0.0
28/01:30am 7.2 6.3 6.0 92 0.5 CALM 0 0 0 0 1022.5 1022.5 0.0
28/01:00am 7.0 6.0 5.6 91 0.6 CALM 0 0 0 0 1022.8 1022.8 0.0
28/12:30am 7.3 6.4 6.1 92 0.5 CALM 0 0 0 0 1023.0 1023.0 0.0
28/12:00am 7.2 6.2 5.8 91 0.6 CALM 0 0 0 0 1023.3 1023.3 0.0
 
Date/Time
EST
Temp
°C
App
Temp
°C
Dew
Point
°C
Rel
Hum
%
Delta-T
°C
Wind Press
QNH
hPa
Press
MSL
hPa
Rain since
9am
mm
Dir  Spd
km/h
Gust
km/h
Spd
kts
Gust
kts
27/11:30pm 7.9 5.8 6.7 92 0.6 WSW 7 9 4 5 1023.5 1023.5 0.0
27/11:00pm 7.4 4.8 6.2 92 0.5 WSW 9 11 5 6 1023.5 1023.5 0.0
27/10:30pm 6.8 4.4 5.4 91 0.6 WSW 7 9 4 5 1023.6 1023.6 0.0
27/10:00pm 7.0 6.0 5.6 91 0.6 CALM 0 0 0 0 1023.7 1023.7 0.0
27/09:30pm 7.4 6.5 6.0 91 0.6 CALM 0 0 0 0 1023.7 1023.7 0.0
27/09:00pm 8.2 6.3 6.7 90 0.7 W 6 7 3 4 1023.8 1023.8 0.0
27/08:30pm 8.6 7.5 7.1 90 0.7 W 2 7 1 4 1024.1 1024.1 0.0
27/08:00pm 8.6 7.9 6.9 89 0.8 CALM 0 0 0 0 1024.3 1024.3 0.0
27/07:30pm 8.9 7.0 6.9 87 0.9 WNW 6 7 3 4 1024.2 1024.2 0.0
27/07:00pm 10.0 8.2 7.9 87 1.0 W 7 9 4 5 1023.8 1023.8 0.0
27/06:30pm 10.1 9.5 7.3 83 1.3 CALM 0 0 0 0 1023.8 1023.8 0.0
27/06:00pm 11.1 10.6 7.8 80 1.6 CALM 0 0 0 0 1023.5 1023.5 0.0
27/05:30pm 12.7 11.1 7.8 72 2.4 NE 6 7 3 4 1023.4 1023.4 0.0
27/05:00pm 14.9 13.2 8.4 65 3.3 ENE 7 9 4 5 1023.0 1023.0 0.0
27/04:30pm 16.5 14.0 8.2 58 4.2 E 11 17 6 9 1022.6 1022.6 0.0
27/04:00pm 17.7 14.5 8.3 54 4.8 E 15 20 8 11 1022.5 1022.5 0.0
27/03:30pm 18.7 15.7 6.2 44 6.2 ENE 11 17 6 9 1022.7 1022.7 0.0
27/03:00pm 18.4 16.3 6.6 46 5.8 ENE 7 9 4 5 1022.7 1022.7 0.0
27/02:30pm 19.8 16.6 5.1 38 7.2 NNE 11 15 6 8 1022.7 1022.7 0.0
27/02:00pm 20.3 18.3 4.4 35 7.6 NW 4 9 2 5 1022.8 1022.8 0.0
27/01:30pm 19.6 16.7 4.5 37 7.3 NNE 9 13 5 7 1022.7 1022.7 0.0
27/01:00pm 18.8 16.3 4.9 40 6.7 ESE 7 13 4 7 1023.0 1023.0 0.0
27/12:30pm 18.6 16.1 4.8 40 6.6 NNE 7 13 4 7 1023.5 1023.5 0.0
27/12:00pm 18.4 16.0 5.3 42 6.3 SSE 7 15 4 8 1024.0 1024.0 0.0
27/11:30am 18.1 15.0 5.7 44 6.0 S 11 17 6 9 1024.6 1024.6 0.0
27/11:00am 17.9 15.2 5.8 45 5.9 SE 9 20 5 11 1025.0 1025.0 0.0
27/10:30am 16.8 13.1 4.5 44 5.8 SW 13 17 7 9 1025.3 1025.3 0.0
27/10:00am 15.1 12.5 4.2 48 5.0 W 7 11 4 6 1025.3 1025.3 0.0
27/09:30am 13.2 10.0 4.9 57 3.8 WNW 11 13 6 7 1025.4 1025.4 0.0
27/09:00am 11.6 8.7 4.8 63 3.1 W 9 11 5 6 1025.3 1025.3 0.0
27/08:30am 9.2 6.2 4.2 71 2.2 WSW 9 13 5 7 1025.0 1025.0 0.0
27/08:00am 7.1 4.6 4.6 84 1.1 SW 7 9 4 5 1024.8 1024.8 0.0
27/07:30am 4.4 1.2 3.1 91 0.5 WSW 9 9 5 5 1024.7 1024.7 0.0
27/07:00am 2.4 -1.5 1.1 91 0.5 WSW 11 13 6 7 1024.3 1024.3 0.0
27/06:30am 2.6 0.0 1.1 90 0.6 WSW 4 11 2 6 1024.0 1024.0 0.0
27/06:00am 2.8 -0.4 1.0 88 0.7 W 7 9 4 5 1023.4 1023.4 0.0
27/05:30am 3.6 0.6 1.8 88 0.7 W 7 9 4 5 1023.0 1023.0 0.0
27/05:00am 3.9 2.2 1.8 86 0.8 CALM 0 0 0 0 1022.8 1022.8 0.0
27/04:30am 4.0 1.0 1.9 86 0.8 WNW 7 13 4 7 1022.5 1022.5 0.0
27/04:00am 4.6 1.3 2.5 86 0.8 WSW 9 15 5 8 1022.3 1022.3 0.0
27/03:30am 5.2 2.5 2.6 83 1.1 WNW 6 7 3 4 1022.1 1022.1 0.0
27/03:00am 5.5 2.9 3.0 84 1.0 WSW 6 15 3 8 1021.8 1021.8 0.0
27/02:30am 5.6 1.9 2.4 80 1.3 WSW 11 13 6 7 1021.7 1021.7 0.0
27/02:00am 5.9 1.8 2.2 77 1.5 WSW 13 13 7 7 1021.5 1021.5 0.0
27/01:30am 8.7 5.0 4.3 74 1.9 W 13 15 7 8 1021.3 1021.3 0.0
27/01:00am 6.1 4.3 3.4 83 1.1 WNW 2 7 1 4 1021.1 1021.1 0.0
27/12:30am 6.6 3.4 3.0 78 1.5 W 9 11 5 6 1020.7 1020.7 0.0
27/12:00am 7.9 5.3 3.2 72 2.0 W 6 9 3 5 1020.6 1020.6 0.0
 
Date/Time
EST
Temp
°C
App
Temp
°C
Dew
Point
°C
Rel
Hum
%
Delta-T
°C
Wind Press
QNH
hPa
Press
MSL
hPa
Rain since
9am
mm
Dir  Spd
km/h
Gust
km/h
Spd
kts
Gust
kts
26/11:30pm 8.0 4.2 3.8 75 1.8 WSW 13 17 7 9 1020.3 1020.3 0.0
26/11:00pm 8.1 5.0 3.8 74 1.8 WSW 9 15 5 8 1020.2 1020.2 0.0
26/10:30pm 8.9 5.1 3.9 71 2.2 WSW 13 17 7 9 1019.9 1019.9 0.0
26/10:00pm 9.5 5.4 4.5 71 2.2 WSW 15 20 8 11 1019.8 1019.8 0.0
26/09:30pm 8.8 5.8 4.2 73 2.0 W 9 15 5 8 1019.5 1019.5 0.0
26/09:00pm 9.4 6.5 4.4 71 2.2 WSW 9 13 5 7 1019.4 1019.4 0.0
26/08:30pm 9.4 6.3 3.8 68 2.4 W 9 11 5 6 1019.1 1019.1 0.0
26/08:00pm 12.2 10.9 3.9 57 3.7 CALM 0 0 0 0 1018.8 1018.8 0.0
26/07:30pm 12.0 10.6 3.3 55 3.8 CALM 0 0 0 0 1018.7 1018.7 0.0
26/07:00pm 13.8 12.0 3.3 49 4.7 SSW 2 7 1 4 1018.2 1018.2 0.0
26/06:30pm 16.4 12.6 1.7 37 6.5 W 11 13 6 7 1017.7 1017.7 0.0
26/06:00pm 18.3 14.0 0.9 31 7.7 SW 13 20 7 11 1017.5 1017.5 0.0
26/05:30pm 19.2 14.1 0.8 29 8.2 WSW 17 26 9 14 1016.5 1016.5 0.0
26/05:00pm 20.9 15.2 0.7 26 9.1 WSW 20 28 11 15 1016.2 1016.2 0.0
26/04:30pm 23.2 16.6 -0.3 21 10.6 WSW 24 33 13 18 1015.9 1015.9 0.0
26/04:00pm 24.7 19.5 0.3 20 11.3 W 17 24 9 13 1015.5 1015.5 0.0
26/03:30pm 25.4 19.5 -0.6 18 11.9 W 20 37 11 20 1015.2 1015.2 0.0
26/03:00pm 25.9 20.2 0.5 19 11.9 W 20 32 11 17 1015.1 1015.1 0.0
26/02:30pm 26.0 20.3 0.6 19 11.9 W 20 32 11 17 1015.0 1015.0 0.0
26/02:00pm 25.8 18.5 -0.3 18 12.0 W 28 37 15 20 1015.0 1015.0 0.0
26/01:30pm 25.9 18.8 1.2 20 11.7 W 28 43 15 23 1014.9 1014.9 0.0
26/01:00pm 25.6 20.2 1.0 20 11.6 NW 19 32 10 17 1015.2 1015.2 0.0
26/12:30pm 25.6 20.4 2.3 22 11.2 WNW 19 28 10 15 1015.9 1015.9 0.0
26/12:00pm 25.4 20.3 2.8 23 11.0 NW 19 30 10 16 1016.7 1016.7 0.0
26/11:30am 24.6 20.2 2.7 24 10.6 NW 15 20 8 11 1017.5 1017.5 0.0
26/11:00am 23.6 19.2 4.5 29 9.4 WNW 17 28 9 15 1018.2 1018.2 0.0
26/10:30am 22.3 16.4 3.9 30 8.9 NNW 24 35 13 19 1018.3 1018.3 0.0
26/10:00am 21.3 16.7 3.5 31 8.5 NW 17 22 9 12 1019.0 1019.0 0.0
26/09:30am 19.1 14.7 4.5 38 7.0 WNW 17 22 9 12 1019.0 1019.0 0.0
26/09:00am 16.4 11.2 3.8 43 5.8 WNW 20 26 11 14 1019.0 1019.0 0.0
26/08:30am 15.9 10.9 3.7 44 5.6 NW 19 24 10 13 1019.2 1019.2 0.0
26/08:00am 14.1 10.9 3.0 47 4.9 WNW 9 17 5 9 1019.3 1019.3 0.0
26/07:30am 13.1 7.4 2.9 50 4.5 NW 22 32 12 17 1019.1 1019.1 0.0
26/07:00am 11.8 6.5 2.8 54 3.9 NW 20 32 11 17 1019.2 1019.2 0.0
26/06:30am 11.8 6.5 2.8 54 3.9 NW 20 26 11 14 1019.5 1019.5 0.0
26/06:00am 11.2 5.6 3.3 58 3.5 NW 22 30 12 16 1019.3 1019.3 0.0
26/05:30am 10.5 4.6 3.8 63 3.0 WNW 24 32 13 17 1019.4 1019.4 0.0
26/05:00am 10.0 5.5 4.4 68 2.5 NW 17 22 9 12 1019.1 1019.1 0.0
26/04:30am 6.2 4.0 3.5 83 1.1 S 4 7 2 4 1019.6 1019.6 0.0
26/04:00am 5.8 3.2 3.1 83 1.1 S 6 9 3 5 1019.8 1019.8 0.0
26/03:30am 8.0 4.6 3.8 75 1.8 WNW 11 15 6 8 1019.9 1019.9 0.0
26/03:00am 8.0 4.0 5.1 82 1.3 WNW 15 17 8 9 1020.1 1020.1 0.0
26/02:30am 4.2 1.5 2.9 91 0.5 S 6 9 3 5 1020.4 1020.4 0.0
26/02:00am 4.2 1.5 2.9 91 0.5 S 6 7 3 4 1020.7 1020.7 0.0
26/01:30am 4.6 2.1 3.6 93 0.4 SSW 6 9 3 5 1020.9 1020.9 0.0
26/01:00am 3.8 0.5 2.6 92 0.5 SW 9 11 5 6 1020.9 1020.9 0.0
26/12:30am 4.5 1.7 3.2 91 0.5 WSW 7 9 4 5 1020.8 1020.8 0.0
26/12:00am 5.0 3.6 3.5 90 0.6 CALM 0 0 0 0 1020.9 1020.9 0.0
 
Date/Time
EST
Temp
°C
App
Temp
°C
Dew
Point
°C
Rel
Hum
%
Delta-T
°C
Wind Press
QNH
hPa
Press
MSL
hPa
Rain since
9am
mm
Dir  Spd
km/h
Gust
km/h
Spd
kts
Gust
kts
25/11:30pm 5.1 3.7 3.6 90 0.6 CALM 0 0 0 0 1021.0 1021.0 0.0
25/11:00pm 6.0 4.7 4.3 89 0.7 CALM 0 0 0 0 1021.3 1021.3 0.0
25/10:30pm 6.3 4.0 4.8 90 0.7 WNW 6 9 3 5 1021.4 1021.4 0.0
25/10:00pm 6.1 3.6 4.9 92 0.5 WNW 7 11 4 6 1021.6 1021.6 0.0
25/09:30pm 5.9 3.0 4.5 91 0.6 WSW 9 11 5 6 1021.7 1021.7 0.0
25/09:00pm 5.9 2.9 4.2 89 0.7 WSW 9 9 5 5 1021.8 1021.8 0.0
25/08:30pm 6.3 3.8 4.5 88 0.8 W 7 11 4 6 1022.1 1022.1 0.0
25/08:00pm 7.2 4.8 5.2 87 0.9 WNW 7 9 4 5 1022.1 1022.1 0.0
25/07:30pm 7.8 5.4 5.4 85 1.1 W 7 9 4 5 1022.1 1022.1 0.0
25/07:00pm 8.7 6.1 6.3 85 1.1 W 9 13 5 7 1021.9 1021.9 0.0
25/06:30pm 9.5 8.5 5.5 76 1.8 CALM 0 0 0 0 1021.6 1021.6 0.0
25/06:00pm 11.0 9.7 6.2 72 2.2 NNE 2 6 1 3 1021.6 1021.6 0.0
25/05:30pm 13.1 11.0 6.7 65 3.1 NNE 7 11 4 6 1021.3 1021.3 0.0
25/05:00pm 15.3 12.6 5.8 53 4.5 E 9 11 5 6 1020.9 1020.9 0.0
25/04:30pm 17.1 14.2 6.3 49 5.3 E 11 15 6 8 1020.6 1020.6 0.0
25/04:00pm 18.8 15.3 5.3 41 6.5 E 13 17 7 9 1020.5 1020.5 0.0
25/03:30pm 19.6 17.0 3.3 34 7.7 ESE 6 9 3 5 1020.7 1020.7 0.0
25/03:00pm 20.1 17.4 2.9 32 8.0 ENE 6 11 3 6 1020.7 1020.7 0.0
25/02:30pm 19.8 17.5 2.6 32 8.0 SE 4 11 2 6 1020.8 1020.8 0.0
25/02:00pm 19.8 17.3 3.5 34 7.7 ESE 6 13 3 7 1020.9 1020.9 0.0
25/01:30pm 19.9 16.6 2.7 32 8.0 ENE 9 13 5 7 1021.0 1021.0 0.0
25/01:00pm 19.5 16.7 3.2 34 7.6 E 7 11 4 6 1021.3 1021.3 0.0
25/12:30pm 19.2 17.1 3.8 36 7.3 W 4 9 2 5 1021.7 1021.7 0.0
25/12:00pm 19.3 16.7 4.3 37 7.1 WNW 7 11 4 6 1022.2 1022.2 0.0
25/11:30am 17.8 14.6 3.3 38 6.7 W 9 17 5 9 1023.0 1023.0 0.0
25/11:00am 17.4 12.9 4.0 41 6.3 WNW 17 20 9 11 1023.5 1023.5 0.0
25/10:30am 16.6 12.5 4.6 45 5.7 NW 15 20 8 11 1024.0 1024.0 0.0
25/10:00am 15.0 11.0 4.7 50 4.8 NW 15 20 8 11 1024.5 1024.5 0.0
25/09:30am 13.2 9.5 4.6 56 3.9 WNW 13 19 7 10 1024.7 1024.7 0.0
25/09:00am 11.5 8.2 4.3 61 3.2 WNW 11 17 6 9 1024.6 1024.6 0.0

Other Formats:

Comma delimited format used in spreadsheet applications
http://www.bom.gov.au/fwo/IDN60801/IDN60801.94785.axf

JavaScript Object Notation format (JSON) in row-major order
http://www.bom.gov.au/fwo/IDN60801/IDN60801.94785.json